sensor_id;sensor_type;location;lat;lon;timestamp;P1;durP1;ratioP1;P2;durP2;ratioP2
49548;SDS011;35450;44.518;7.466;2023-02-20T00:02:40;36.97;;;24.08;;
49548;SDS011;35450;44.518;7.466;2023-02-20T00:05:45;36.38;;;23.27;;
49548;SDS011;35450;44.518;7.466;2023-02-20T00:08:48;33.92;;;23.52;;
49548;SDS011;35450;44.518;7.466;2023-02-20T00:11:52;37.63;;;24.98;;
49548;SDS011;35450;44.518;7.466;2023-02-20T00:14:56;40.13;;;25.20;;
49548;SDS011;35450;44.518;7.466;2023-02-20T00:18:00;61.30;;;32.47;;
49548;SDS011;35450;44.518;7.466;2023-02-20T00:21:04;63.03;;;36.05;;
49548;SDS011;35450;44.518;7.466;2023-02-20T00:24:09;77.60;;;41.58;;
49548;SDS011;35450;44.518;7.466;2023-02-20T00:27:13;47.80;;;28.42;;
49548;SDS011;35450;44.518;7.466;2023-02-20T00:30:18;40.47;;;25.45;;
49548;SDS011;35450;44.518;7.466;2023-02-20T00:33:24;45.70;;;28.65;;
49548;SDS011;35450;44.518;7.466;2023-02-20T00:36:28;48.58;;;28.30;;
49548;SDS011;35450;44.518;7.466;2023-02-20T00:39:32;53.67;;;30.95;;
49548;SDS011;35450;44.518;7.466;2023-02-20T00:42:37;43.47;;;26.30;;
49548;SDS011;35450;44.518;7.466;2023-02-20T00:45:42;45.42;;;26.48;;
49548;SDS011;35450;44.518;7.466;2023-02-20T00:48:46;45.75;;;26.80;;
49548;SDS011;35450;44.518;7.466;2023-02-20T00:52:24;41.47;;;24.98;;
49548;SDS011;35450;44.518;7.466;2023-02-20T00:55:28;36.92;;;23.92;;
49548;SDS011;35450;44.518;7.466;2023-02-20T00:58:32;40.63;;;25.92;;
49548;SDS011;35450;44.518;7.466;2023-02-20T01:01:36;41.33;;;24.48;;
49548;SDS011;35450;44.518;7.466;2023-02-20T01:04:40;36.72;;;23.08;;
49548;SDS011;35450;44.518;7.466;2023-02-20T01:07:46;37.50;;;23.40;;
49548;SDS011;35450;44.518;7.466;2023-02-20T01:10:50;34.42;;;23.13;;
49548;SDS011;35450;44.518;7.466;2023-02-20T01:13:54;38.15;;;23.90;;
49548;SDS011;35450;44.518;7.466;2023-02-20T01:16:58;45.05;;;25.00;;
49548;SDS011;35450;44.518;7.466;2023-02-20T01:20:04;50.13;;;26.73;;
49548;SDS011;35450;44.518;7.466;2023-02-20T01:23:09;33.95;;;22.23;;
49548;SDS011;35450;44.518;7.466;2023-02-20T01:26:13;39.72;;;22.30;;
49548;SDS011;35450;44.518;7.466;2023-02-20T01:29:17;33.88;;;21.92;;
49548;SDS011;35450;44.518;7.466;2023-02-20T01:32:21;38.95;;;21.77;;
49548;SDS011;35450;44.518;7.466;2023-02-20T01:35:25;36.92;;;21.92;;
49548;SDS011;35450;44.518;7.466;2023-02-20T01:38:33;37.28;;;21.23;;
49548;SDS011;35450;44.518;7.466;2023-02-20T01:41:40;35.05;;;23.20;;
49548;SDS011;35450;44.518;7.466;2023-02-20T01:44:43;32.35;;;20.45;;
49548;SDS011;35450;44.518;7.466;2023-02-20T01:47:48;32.00;;;19.23;;
49548;SDS011;35450;44.518;7.466;2023-02-20T01:50:55;28.27;;;19.33;;
49548;SDS011;35450;44.518;7.466;2023-02-20T01:54:03;29.90;;;18.42;;
49548;SDS011;35450;44.518;7.466;2023-02-20T01:57:12;34.58;;;19.13;;
49548;SDS011;35450;44.518;7.466;2023-02-20T02:00:21;29.52;;;18.58;;
49548;SDS011;35450;44.518;7.466;2023-02-20T02:03:30;36.38;;;20.08;;
49548;SDS011;35450;44.518;7.466;2023-02-20T02:06:39;35.47;;;21.05;;
49548;SDS011;35450;44.518;7.466;2023-02-20T02:09:50;34.13;;;20.38;;
49548;SDS011;35450;44.518;7.466;2023-02-20T02:12:58;36.33;;;22.70;;
49548;SDS011;35450;44.518;7.466;2023-02-20T02:39:51;41.90;;;22.25;;
49548;SDS011;35450;44.518;7.466;2023-02-20T02:50:22;31.27;;;20.23;;
49548;SDS011;35450;44.518;7.466;2023-02-20T02:53:37;26.92;;;19.10;;
49548;SDS011;35450;44.518;7.466;2023-02-20T02:56:45;31.88;;;19.55;;
49548;SDS011;35450;44.518;7.466;2023-02-20T03:00:00;32.72;;;19.77;;
49548;SDS011;35450;44.518;7.466;2023-02-20T03:03:10;31.00;;;20.30;;
49548;SDS011;35450;44.518;7.466;2023-02-20T03:06:22;34.87;;;20.90;;
49548;SDS011;35450;44.518;7.466;2023-02-20T03:09:34;38.30;;;23.10;;
49548;SDS011;35450;44.518;7.466;2023-02-20T03:12:44;41.70;;;27.65;;
49548;SDS011;35450;44.518;7.466;2023-02-20T03:15:53;38.88;;;22.15;;
49548;SDS011;35450;44.518;7.466;2023-02-20T03:18:59;44.00;;;25.13;;
49548;SDS011;35450;44.518;7.466;2023-02-20T03:22:06;32.28;;;21.00;;
49548;SDS011;35450;44.518;7.466;2023-02-20T03:25:20;29.75;;;19.75;;
49548;SDS011;35450;44.518;7.466;2023-02-20T03:28:31;29.98;;;20.20;;
49548;SDS011;35450;44.518;7.466;2023-02-20T03:34:49;28.70;;;19.50;;
49548;SDS011;35450;44.518;7.466;2023-02-20T03:38:14;30.90;;;18.92;;
49548;SDS011;35450;44.518;7.466;2023-02-20T03:41:39;29.92;;;20.13;;
49548;SDS011;35450;44.518;7.466;2023-02-20T03:45:07;27.45;;;18.15;;
49548;SDS011;35450;44.518;7.466;2023-02-20T03:48:15;31.98;;;19.75;;
49548;SDS011;35450;44.518;7.466;2023-02-20T03:51:46;32.50;;;19.65;;
49548;SDS011;35450;44.518;7.466;2023-02-20T03:55:02;28.83;;;18.40;;
49548;SDS011;35450;44.518;7.466;2023-02-20T03:58:08;27.90;;;17.70;;
49548;SDS011;35450;44.518;7.466;2023-02-20T04:01:14;28.25;;;18.88;;
49548;SDS011;35450;44.518;7.466;2023-02-20T04:04:22;29.30;;;19.42;;
49548;SDS011;35450;44.518;7.466;2023-02-20T04:07:38;29.95;;;19.02;;
49548;SDS011;35450;44.518;7.466;2023-02-20T04:10:57;32.00;;;19.10;;
49548;SDS011;35450;44.518;7.466;2023-02-20T04:14:05;35.13;;;21.17;;
49548;SDS011;35450;44.518;7.466;2023-02-20T04:17:11;29.38;;;18.80;;
49548;SDS011;35450;44.518;7.466;2023-02-20T04:20:18;28.20;;;17.73;;
49548;SDS011;35450;44.518;7.466;2023-02-20T04:23:33;29.08;;;19.25;;
49548;SDS011;35450;44.518;7.466;2023-02-20T04:26:43;27.77;;;18.38;;
49548;SDS011;35450;44.518;7.466;2023-02-20T04:29:49;31.20;;;18.25;;
49548;SDS011;35450;44.518;7.466;2023-02-20T04:32:53;25.20;;;16.60;;
49548;SDS011;35450;44.518;7.466;2023-02-20T04:35:57;28.52;;;18.98;;
49548;SDS011;35450;44.518;7.466;2023-02-20T04:39:01;32.33;;;18.25;;
49548;SDS011;35450;44.518;7.466;2023-02-20T04:42:08;26.00;;;17.75;;
49548;SDS011;35450;44.518;7.466;2023-02-20T04:45:14;26.83;;;17.95;;
49548;SDS011;35450;44.518;7.466;2023-02-20T04:48:20;25.50;;;17.55;;
49548;SDS011;35450;44.518;7.466;2023-02-20T04:51:24;26.17;;;17.83;;
49548;SDS011;35450;44.518;7.466;2023-02-20T04:54:28;29.83;;;17.63;;
49548;SDS011;35450;44.518;7.466;2023-02-20T04:57:32;30.17;;;19.15;;
49548;SDS011;35450;44.518;7.466;2023-02-20T05:00:36;25.58;;;17.00;;
49548;SDS011;35450;44.518;7.466;2023-02-20T05:03:40;30.15;;;17.88;;
49548;SDS011;35450;44.518;7.466;2023-02-20T05:06:46;32.75;;;19.88;;
49548;SDS011;35450;44.518;7.466;2023-02-20T05:09:52;34.35;;;18.60;;
49548;SDS011;35450;44.518;7.466;2023-02-20T05:12:56;30.77;;;20.27;;
49548;SDS011;35450;44.518;7.466;2023-02-20T05:16:00;30.95;;;19.83;;
49548;SDS011;35450;44.518;7.466;2023-02-20T05:19:04;29.67;;;19.85;;
49548;SDS011;35450;44.518;7.466;2023-02-20T05:22:10;35.13;;;19.92;;
49548;SDS011;35450;44.518;7.466;2023-02-20T05:25:25;28.45;;;19.70;;
49548;SDS011;35450;44.518;7.466;2023-02-20T05:28:29;27.15;;;17.67;;
49548;SDS011;35450;44.518;7.466;2023-02-20T05:31:33;27.00;;;17.63;;
49548;SDS011;35450;44.518;7.466;2023-02-20T05:34:36;29.52;;;18.73;;
49548;SDS011;35450;44.518;7.466;2023-02-20T05:37:40;32.78;;;17.58;;
49548;SDS011;35450;44.518;7.466;2023-02-20T05:40:45;27.33;;;19.00;;
49548;SDS011;35450;44.518;7.466;2023-02-20T05:43:49;42.08;;;18.30;;
49548;SDS011;35450;44.518;7.466;2023-02-20T05:46:53;29.95;;;18.75;;
49548;SDS011;35450;44.518;7.466;2023-02-20T05:49:57;30.98;;;18.95;;
49548;SDS011;35450;44.518;7.466;2023-02-20T05:53:01;34.00;;;19.58;;
49548;SDS011;35450;44.518;7.466;2023-02-20T05:56:06;34.67;;;21.98;;
49548;SDS011;35450;44.518;7.466;2023-02-20T05:59:10;34.38;;;21.33;;
49548;SDS011;35450;44.518;7.466;2023-02-20T06:02:14;30.75;;;20.33;;
49548;SDS011;35450;44.518;7.466;2023-02-20T06:05:18;34.13;;;20.58;;
49548;SDS011;35450;44.518;7.466;2023-02-20T06:08:22;35.50;;;20.98;;
49548;SDS011;35450;44.518;7.466;2023-02-20T06:11:26;34.53;;;21.85;;
49548;SDS011;35450;44.518;7.466;2023-02-20T06:14:30;43.30;;;25.30;;
49548;SDS011;35450;44.518;7.466;2023-02-20T06:17:34;44.20;;;23.75;;
49548;SDS011;35450;44.518;7.466;2023-02-20T06:20:38;39.13;;;23.60;;
49548;SDS011;35450;44.518;7.466;2023-02-20T06:23:43;41.75;;;23.70;;
49548;SDS011;35450;44.518;7.466;2023-02-20T06:26:49;42.10;;;26.50;;
49548;SDS011;35450;44.518;7.466;2023-02-20T06:29:54;50.30;;;31.40;;
49548;SDS011;35450;44.518;7.466;2023-02-20T06:32:58;76.50;;;42.90;;
49548;SDS011;35450;44.518;7.466;2023-02-20T06:36:02;68.43;;;39.00;;
49548;SDS011;35450;44.518;7.466;2023-02-20T06:39:08;45.47;;;26.70;;
49548;SDS011;35450;44.518;7.466;2023-02-20T06:42:13;60.42;;;29.55;;
49548;SDS011;35450;44.518;7.466;2023-02-20T06:45:18;42.95;;;26.25;;
49548;SDS011;35450;44.518;7.466;2023-02-20T06:48:22;44.08;;;25.25;;
49548;SDS011;35450;44.518;7.466;2023-02-20T06:51:27;39.50;;;23.75;;
49548;SDS011;35450;44.518;7.466;2023-02-20T06:54:32;46.70;;;24.98;;
49548;SDS011;35450;44.518;7.466;2023-02-20T06:57:36;48.45;;;25.40;;
49548;SDS011;35450;44.518;7.466;2023-02-20T07:00:40;46.05;;;26.45;;
49548;SDS011;35450;44.518;7.466;2023-02-20T07:03:45;45.00;;;27.55;;
49548;SDS011;35450;44.518;7.466;2023-02-20T07:06:51;37.78;;;25.08;;
49548;SDS011;35450;44.518;7.466;2023-02-20T07:09:55;43.67;;;26.63;;
49548;SDS011;35450;44.518;7.466;2023-02-20T07:12:59;48.47;;;25.42;;
49548;SDS011;35450;44.518;7.466;2023-02-20T07:16:05;46.78;;;28.30;;
49548;SDS011;35450;44.518;7.466;2023-02-20T07:19:09;46.38;;;28.27;;
49548;SDS011;35450;44.518;7.466;2023-02-20T07:22:13;50.03;;;28.58;;
49548;SDS011;35450;44.518;7.466;2023-02-20T07:25:17;54.10;;;27.48;;
49548;SDS011;35450;44.518;7.466;2023-02-20T07:28:22;49.97;;;26.33;;
49548;SDS011;35450;44.518;7.466;2023-02-20T07:31:27;52.08;;;29.00;;
49548;SDS011;35450;44.518;7.466;2023-02-20T07:34:31;52.90;;;31.70;;
49548;SDS011;35450;44.518;7.466;2023-02-20T07:37:35;73.65;;;42.60;;
49548;SDS011;35450;44.518;7.466;2023-02-20T07:40:39;67.22;;;38.42;;
49548;SDS011;35450;44.518;7.466;2023-02-20T07:43:44;58.00;;;34.08;;
49548;SDS011;35450;44.518;7.466;2023-02-20T07:46:49;59.55;;;34.42;;
49548;SDS011;35450;44.518;7.466;2023-02-20T07:49:54;57.85;;;35.00;;
49548;SDS011;35450;44.518;7.466;2023-02-20T07:52:58;56.63;;;36.13;;
49548;SDS011;35450;44.518;7.466;2023-02-20T07:56:03;55.95;;;31.75;;
49548;SDS011;35450;44.518;7.466;2023-02-20T07:59:09;46.95;;;27.63;;
49548;SDS011;35450;44.518;7.466;2023-02-20T08:02:13;47.05;;;26.77;;
49548;SDS011;35450;44.518;7.466;2023-02-20T08:05:17;44.58;;;25.88;;
49548;SDS011;35450;44.518;7.466;2023-02-20T08:08:21;40.08;;;25.35;;
49548;SDS011;35450;44.518;7.466;2023-02-20T08:11:26;40.35;;;25.48;;
49548;SDS011;35450;44.518;7.466;2023-02-20T08:14:30;39.35;;;24.40;;
49548;SDS011;35450;44.518;7.466;2023-02-20T08:17:34;45.55;;;27.08;;
49548;SDS011;35450;44.518;7.466;2023-02-20T08:20:39;42.90;;;26.05;;
49548;SDS011;35450;44.518;7.466;2023-02-20T08:23:44;40.72;;;26.13;;
49548;SDS011;35450;44.518;7.466;2023-02-20T08:26:48;40.38;;;26.13;;
49548;SDS011;35450;44.518;7.466;2023-02-20T08:29:52;50.08;;;26.48;;
49548;SDS011;35450;44.518;7.466;2023-02-20T08:32:56;41.15;;;24.85;;
49548;SDS011;35450;44.518;7.466;2023-02-20T08:36:01;45.35;;;25.17;;
49548;SDS011;35450;44.518;7.466;2023-02-20T08:39:05;40.35;;;26.25;;
49548;SDS011;35450;44.518;7.466;2023-02-20T08:42:09;41.80;;;24.40;;
49548;SDS011;35450;44.518;7.466;2023-02-20T08:45:16;44.58;;;26.65;;
49548;SDS011;35450;44.518;7.466;2023-02-20T08:48:20;43.15;;;24.30;;
49548;SDS011;35450;44.518;7.466;2023-02-20T08:51:24;37.08;;;22.80;;
49548;SDS011;35450;44.518;7.466;2023-02-20T08:54:29;37.97;;;23.63;;
49548;SDS011;35450;44.518;7.466;2023-02-20T08:57:33;40.22;;;23.45;;
49548;SDS011;35450;44.518;7.466;2023-02-20T09:00:37;37.00;;;22.30;;
49548;SDS011;35450;44.518;7.466;2023-02-20T09:03:41;34.15;;;20.55;;
49548;SDS011;35450;44.518;7.466;2023-02-20T09:06:46;47.28;;;22.45;;
49548;SDS011;35450;44.518;7.466;2023-02-20T09:09:50;29.23;;;19.60;;
49548;SDS011;35450;44.518;7.466;2023-02-20T09:12:54;35.80;;;20.58;;
49548;SDS011;35450;44.518;7.466;2023-02-20T09:15:58;38.90;;;21.05;;
49548;SDS011;35450;44.518;7.466;2023-02-20T09:19:02;35.33;;;20.10;;
49548;SDS011;35450;44.518;7.466;2023-02-20T09:22:06;35.30;;;18.63;;
49548;SDS011;35450;44.518;7.466;2023-02-20T09:25:11;30.83;;;17.73;;
49548;SDS011;35450;44.518;7.466;2023-02-20T09:28:16;27.42;;;17.70;;
49548;SDS011;35450;44.518;7.466;2023-02-20T09:31:20;34.70;;;19.00;;
49548;SDS011;35450;44.518;7.466;2023-02-20T09:34:24;29.42;;;17.48;;
49548;SDS011;35450;44.518;7.466;2023-02-20T09:37:28;24.60;;;16.35;;
49548;SDS011;35450;44.518;7.466;2023-02-20T09:40:32;27.55;;;16.23;;
49548;SDS011;35450;44.518;7.466;2023-02-20T09:47:54;27.67;;;17.50;;
49548;SDS011;35450;44.518;7.466;2023-02-20T09:50:58;26.60;;;17.40;;
49548;SDS011;35450;44.518;7.466;2023-02-20T09:54:11;31.23;;;16.30;;
49548;SDS011;35450;44.518;7.466;2023-02-20T09:57:22;34.03;;;18.40;;
49548;SDS011;35450;44.518;7.466;2023-02-20T10:00:30;34.60;;;22.20;;
49548;SDS011;35450;44.518;7.466;2023-02-20T10:03:51;36.28;;;20.77;;
49548;SDS011;35450;44.518;7.466;2023-02-20T10:07:11;32.80;;;20.88;;
49548;SDS011;35450;44.518;7.466;2023-02-20T10:10:23;31.35;;;21.55;;
49548;SDS011;35450;44.518;7.466;2023-02-20T10:17:23;35.78;;;19.60;;
49548;SDS011;35450;44.518;7.466;2023-02-20T10:24:18;33.35;;;18.63;;
49548;SDS011;35450;44.518;7.466;2023-02-20T10:30:34;32.17;;;18.73;;
49548;SDS011;35450;44.518;7.466;2023-02-20T10:33:46;29.73;;;18.48;;
49548;SDS011;35450;44.518;7.466;2023-02-20T10:36:55;30.27;;;18.05;;
49548;SDS011;35450;44.518;7.466;2023-02-20T10:40:22;29.02;;;18.67;;
49548;SDS011;35450;44.518;7.466;2023-02-20T10:47:24;39.05;;;20.77;;
49548;SDS011;35450;44.518;7.466;2023-02-20T10:50:36;31.50;;;20.50;;
49548;SDS011;35450;44.518;7.466;2023-02-20T10:57:05;37.47;;;21.15;;
49548;SDS011;35450;44.518;7.466;2023-02-20T11:00:22;37.65;;;20.38;;
49548;SDS011;35450;44.518;7.466;2023-02-20T11:03:35;34.67;;;20.63;;
49548;SDS011;35450;44.518;7.466;2023-02-20T11:07:00;34.03;;;20.15;;
49548;SDS011;35450;44.518;7.466;2023-02-20T11:10:11;34.50;;;20.70;;
49548;SDS011;35450;44.518;7.466;2023-02-20T11:13:16;32.10;;;19.55;;
49548;SDS011;35450;44.518;7.466;2023-02-20T11:20:02;36.80;;;21.42;;
49548;SDS011;35450;44.518;7.466;2023-02-20T11:23:09;36.30;;;21.38;;
49548;SDS011;35450;44.518;7.466;2023-02-20T11:26:33;36.05;;;21.15;;
49548;SDS011;35450;44.518;7.466;2023-02-20T11:30:21;32.28;;;19.42;;
49548;SDS011;35450;44.518;7.466;2023-02-20T11:33:21;33.72;;;21.60;;
49548;SDS011;35450;44.518;7.466;2023-02-20T11:36:36;40.08;;;22.48;;
49548;SDS011;35450;44.518;7.466;2023-02-20T11:39:47;35.72;;;23.15;;
49548;SDS011;35450;44.518;7.466;2023-02-20T11:42:52;38.70;;;23.40;;
49548;SDS011;35450;44.518;7.466;2023-02-20T11:46:16;43.35;;;25.63;;
49548;SDS011;35450;44.518;7.466;2023-02-20T11:49:26;43.92;;;24.92;;
49548;SDS011;35450;44.518;7.466;2023-02-20T11:52:31;39.55;;;25.55;;
49548;SDS011;35450;44.518;7.466;2023-02-20T11:55:35;38.85;;;24.67;;
49548;SDS011;35450;44.518;7.466;2023-02-20T11:58:39;42.53;;;26.40;;
49548;SDS011;35450;44.518;7.466;2023-02-20T12:01:45;42.45;;;26.08;;
49548;SDS011;35450;44.518;7.466;2023-02-20T12:08:48;40.33;;;22.92;;
49548;SDS011;35450;44.518;7.466;2023-02-20T12:11:59;35.17;;;25.92;;
49548;SDS011;35450;44.518;7.466;2023-02-20T12:15:05;42.40;;;27.27;;
49548;SDS011;35450;44.518;7.466;2023-02-20T12:25:13;45.17;;;27.38;;
49548;SDS011;35450;44.518;7.466;2023-02-20T12:28:20;34.17;;;25.90;;
49548;SDS011;35450;44.518;7.466;2023-02-20T12:31:34;43.88;;;26.95;;
49548;SDS011;35450;44.518;7.466;2023-02-20T12:38:21;42.72;;;27.67;;
49548;SDS011;35450;44.518;7.466;2023-02-20T12:45:34;41.78;;;27.80;;
49548;SDS011;35450;44.518;7.466;2023-02-20T12:48:36;43.97;;;28.63;;
49548;SDS011;35450;44.518;7.466;2023-02-20T12:59:30;43.38;;;28.08;;
49548;SDS011;35450;44.518;7.466;2023-02-20T13:02:50;41.15;;;28.95;;
49548;SDS011;35450;44.518;7.466;2023-02-20T13:06:01;45.05;;;27.45;;
49548;SDS011;35450;44.518;7.466;2023-02-20T13:12:20;40.95;;;28.90;;
49548;SDS011;35450;44.518;7.466;2023-02-20T13:18:48;51.10;;;32.03;;
49548;SDS011;35450;44.518;7.466;2023-02-20T13:21:57;45.35;;;30.50;;
49548;SDS011;35450;44.518;7.466;2023-02-20T13:28:40;54.95;;;32.10;;
49548;SDS011;35450;44.518;7.466;2023-02-20T13:31:49;45.50;;;31.63;;
49548;SDS011;35450;44.518;7.466;2023-02-20T13:35:31;59.78;;;33.30;;
49548;SDS011;35450;44.518;7.466;2023-02-20T13:42:24;49.38;;;34.22;;
49548;SDS011;35450;44.518;7.466;2023-02-20T13:45:38;54.72;;;32.90;;
49548;SDS011;35450;44.518;7.466;2023-02-20T13:48:45;53.03;;;33.53;;
49548;SDS011;35450;44.518;7.466;2023-02-20T13:51:50;53.38;;;34.17;;
49548;SDS011;35450;44.518;7.466;2023-02-20T13:58:04;51.40;;;35.35;;
49548;SDS011;35450;44.518;7.466;2023-02-20T14:01:14;54.38;;;35.10;;
49548;SDS011;35450;44.518;7.466;2023-02-20T14:04:19;53.00;;;33.22;;
49548;SDS011;35450;44.518;7.466;2023-02-20T14:07:28;51.03;;;33.22;;
49548;SDS011;35450;44.518;7.466;2023-02-20T14:10:40;48.10;;;32.95;;
49548;SDS011;35450;44.518;7.466;2023-02-20T14:13:48;52.58;;;33.38;;
49548;SDS011;35450;44.518;7.466;2023-02-20T14:20:35;54.15;;;33.33;;
49548;SDS011;35450;44.518;7.466;2023-02-20T14:23:40;51.08;;;33.63;;
49548;SDS011;35450;44.518;7.466;2023-02-20T14:26:44;55.95;;;34.95;;
49548;SDS011;35450;44.518;7.466;2023-02-20T14:30:02;52.55;;;34.75;;
49548;SDS011;35450;44.518;7.466;2023-02-20T14:33:14;58.72;;;35.80;;
49548;SDS011;35450;44.518;7.466;2023-02-20T14:43:53;47.55;;;32.85;;
49548;SDS011;35450;44.518;7.466;2023-02-20T14:47:08;48.75;;;31.50;;
49548;SDS011;35450;44.518;7.466;2023-02-20T14:50:27;49.92;;;32.97;;
49548;SDS011;35450;44.518;7.466;2023-02-20T14:53:33;56.83;;;35.92;;
49548;SDS011;35450;44.518;7.466;2023-02-20T14:56:38;50.95;;;32.75;;
49548;SDS011;35450;44.518;7.466;2023-02-20T14:59:42;50.60;;;33.53;;
49548;SDS011;35450;44.518;7.466;2023-02-20T15:02:47;57.17;;;33.05;;
49548;SDS011;35450;44.518;7.466;2023-02-20T15:05:54;57.08;;;36.38;;
49548;SDS011;35450;44.518;7.466;2023-02-20T15:09:04;56.75;;;34.13;;
49548;SDS011;35450;44.518;7.466;2023-02-20T15:15:46;54.55;;;32.42;;
49548;SDS011;35450;44.518;7.466;2023-02-20T15:18:53;53.65;;;32.80;;
49548;SDS011;35450;44.518;7.466;2023-02-20T15:21:57;57.90;;;35.50;;
49548;SDS011;35450;44.518;7.466;2023-02-20T15:28:28;48.25;;;32.50;;
49548;SDS011;35450;44.518;7.466;2023-02-20T15:31:33;51.25;;;32.90;;
49548;SDS011;35450;44.518;7.466;2023-02-20T15:34:37;57.00;;;32.42;;
49548;SDS011;35450;44.518;7.466;2023-02-20T15:37:41;50.25;;;32.22;;
49548;SDS011;35450;44.518;7.466;2023-02-20T15:40:45;51.13;;;32.80;;
49548;SDS011;35450;44.518;7.466;2023-02-20T15:43:49;53.35;;;34.35;;
49548;SDS011;35450;44.518;7.466;2023-02-20T15:46:53;54.42;;;34.67;;
49548;SDS011;35450;44.518;7.466;2023-02-20T15:49:57;55.97;;;33.63;;
49548;SDS011;35450;44.518;7.466;2023-02-20T15:53:02;57.78;;;34.35;;
49548;SDS011;35450;44.518;7.466;2023-02-20T15:56:08;59.83;;;34.95;;
49548;SDS011;35450;44.518;7.466;2023-02-20T15:59:13;55.35;;;34.17;;
49548;SDS011;35450;44.518;7.466;2023-02-20T16:02:18;53.00;;;33.80;;
49548;SDS011;35450;44.518;7.466;2023-02-20T16:05:24;55.80;;;35.95;;
49548;SDS011;35450;44.518;7.466;2023-02-20T16:08:28;52.63;;;34.20;;
49548;SDS011;35450;44.518;7.466;2023-02-20T16:11:39;55.33;;;34.25;;
49548;SDS011;35450;44.518;7.466;2023-02-20T16:14:46;55.92;;;35.95;;
49548;SDS011;35450;44.518;7.466;2023-02-20T16:17:55;65.53;;;37.53;;
49548;SDS011;35450;44.518;7.466;2023-02-20T16:21:00;55.95;;;35.40;;
49548;SDS011;35450;44.518;7.466;2023-02-20T16:24:04;53.10;;;35.63;;
49548;SDS011;35450;44.518;7.466;2023-02-20T16:27:10;54.47;;;35.90;;
49548;SDS011;35450;44.518;7.466;2023-02-20T16:33:28;59.78;;;38.03;;
49548;SDS011;35450;44.518;7.466;2023-02-20T16:36:32;68.78;;;40.45;;
49548;SDS011;35450;44.518;7.466;2023-02-20T16:39:37;68.72;;;38.95;;
49548;SDS011;35450;44.518;7.466;2023-02-20T16:42:41;54.97;;;35.50;;
49548;SDS011;35450;44.518;7.466;2023-02-20T16:45:45;63.67;;;35.90;;
49548;SDS011;35450;44.518;7.466;2023-02-20T16:48:51;60.90;;;37.45;;
49548;SDS011;35450;44.518;7.466;2023-02-20T16:51:55;58.92;;;38.50;;
49548;SDS011;35450;44.518;7.466;2023-02-20T16:55:13;58.45;;;35.72;;
49548;SDS011;35450;44.518;7.466;2023-02-20T16:58:25;57.17;;;36.20;;
49548;SDS011;35450;44.518;7.466;2023-02-20T17:01:29;83.63;;;50.05;;
49548;SDS011;35450;44.518;7.466;2023-02-20T17:04:34;106.93;;;50.67;;
49548;SDS011;35450;44.518;7.466;2023-02-20T17:07:38;88.03;;;44.53;;
49548;SDS011;35450;44.518;7.466;2023-02-20T17:10:42;75.47;;;40.92;;
49548;SDS011;35450;44.518;7.466;2023-02-20T17:13:46;100.40;;;54.20;;
49548;SDS011;35450;44.518;7.466;2023-02-20T17:16:50;86.30;;;39.50;;
49548;SDS011;35450;44.518;7.466;2023-02-20T17:19:54;68.03;;;42.08;;
49548;SDS011;35450;44.518;7.466;2023-02-20T17:22:59;74.18;;;37.67;;
49548;SDS011;35450;44.518;7.466;2023-02-20T17:26:07;54.53;;;35.30;;
49548;SDS011;35450;44.518;7.466;2023-02-20T17:29:12;55.53;;;33.83;;
49548;SDS011;35450;44.518;7.466;2023-02-20T17:32:16;57.30;;;33.25;;
49548;SDS011;35450;44.518;7.466;2023-02-20T17:35:20;56.97;;;32.90;;
49548;SDS011;35450;44.518;7.466;2023-02-20T17:38:25;54.88;;;33.75;;
49548;SDS011;35450;44.518;7.466;2023-02-20T17:41:29;52.92;;;34.33;;
49548;SDS011;35450;44.518;7.466;2023-02-20T17:44:32;51.60;;;33.55;;
49548;SDS011;35450;44.518;7.466;2023-02-20T17:47:37;53.25;;;32.88;;
49548;SDS011;35450;44.518;7.466;2023-02-20T17:50:41;58.00;;;34.08;;
49548;SDS011;35450;44.518;7.466;2023-02-20T17:53:45;50.28;;;32.13;;
49548;SDS011;35450;44.518;7.466;2023-02-20T17:56:50;48.45;;;31.83;;
49548;SDS011;35450;44.518;7.466;2023-02-20T17:59:54;54.13;;;29.17;;
49548;SDS011;35450;44.518;7.466;2023-02-20T18:02:58;47.22;;;29.38;;
49548;SDS011;35450;44.518;7.466;2023-02-20T18:06:02;47.90;;;28.40;;
49548;SDS011;35450;44.518;7.466;2023-02-20T18:09:07;47.88;;;28.90;;
49548;SDS011;35450;44.518;7.466;2023-02-20T18:12:12;46.03;;;29.42;;
49548;SDS011;35450;44.518;7.466;2023-02-20T18:15:16;49.75;;;31.27;;
49548;SDS011;35450;44.518;7.466;2023-02-20T18:18:22;47.63;;;31.40;;
49548;SDS011;35450;44.518;7.466;2023-02-20T18:21:27;53.85;;;29.65;;
49548;SDS011;35450;44.518;7.466;2023-02-20T18:24:32;45.30;;;30.52;;
49548;SDS011;35450;44.518;7.466;2023-02-20T18:27:36;59.83;;;33.75;;
49548;SDS011;35450;44.518;7.466;2023-02-20T18:30:40;56.60;;;33.33;;
49548;SDS011;35450;44.518;7.466;2023-02-20T18:33:45;64.82;;;34.67;;
49548;SDS011;35450;44.518;7.466;2023-02-20T18:36:48;57.42;;;33.63;;
49548;SDS011;35450;44.518;7.466;2023-02-20T18:39:53;60.58;;;34.85;;
49548;SDS011;35450;44.518;7.466;2023-02-20T18:42:57;67.88;;;34.95;;
49548;SDS011;35450;44.518;7.466;2023-02-20T18:46:01;57.65;;;32.05;;
49548;SDS011;35450;44.518;7.466;2023-02-20T18:49:05;67.38;;;35.55;;
49548;SDS011;35450;44.518;7.466;2023-02-20T18:52:09;55.97;;;32.17;;
49548;SDS011;35450;44.518;7.466;2023-02-20T18:55:14;56.40;;;32.78;;
49548;SDS011;35450;44.518;7.466;2023-02-20T18:58:22;49.47;;;33.08;;
49548;SDS011;35450;44.518;7.466;2023-02-20T19:01:30;58.75;;;35.38;;
49548;SDS011;35450;44.518;7.466;2023-02-20T19:04:36;54.45;;;33.72;;
49548;SDS011;35450;44.518;7.466;2023-02-20T19:07:43;44.55;;;30.95;;
49548;SDS011;35450;44.518;7.466;2023-02-20T19:10:48;54.28;;;33.17;;
49548;SDS011;35450;44.518;7.466;2023-02-20T19:13:52;52.75;;;34.38;;
49548;SDS011;35450;44.518;7.466;2023-02-20T19:16:57;51.17;;;34.50;;
49548;SDS011;35450;44.518;7.466;2023-02-20T19:20:04;46.42;;;33.10;;
49548;SDS011;35450;44.518;7.466;2023-02-20T19:23:10;51.38;;;34.33;;
49548;SDS011;35450;44.518;7.466;2023-02-20T19:26:15;50.47;;;32.78;;
49548;SDS011;35450;44.518;7.466;2023-02-20T19:29:19;54.10;;;33.83;;
49548;SDS011;35450;44.518;7.466;2023-02-20T19:32:24;48.95;;;32.85;;
49548;SDS011;35450;44.518;7.466;2023-02-20T19:35:27;53.90;;;34.13;;
49548;SDS011;35450;44.518;7.466;2023-02-20T19:38:31;49.13;;;33.63;;
49548;SDS011;35450;44.518;7.466;2023-02-20T19:41:37;53.08;;;35.97;;
49548;SDS011;35450;44.518;7.466;2023-02-20T19:44:41;52.22;;;35.08;;
49548;SDS011;35450;44.518;7.466;2023-02-20T19:47:45;55.97;;;37.58;;
49548;SDS011;35450;44.518;7.466;2023-02-20T19:50:49;51.75;;;33.38;;
49548;SDS011;35450;44.518;7.466;2023-02-20T19:53:53;54.65;;;34.08;;
49548;SDS011;35450;44.518;7.466;2023-02-20T19:56:58;51.85;;;34.38;;
49548;SDS011;35450;44.518;7.466;2023-02-20T20:00:04;54.00;;;34.60;;
49548;SDS011;35450;44.518;7.466;2023-02-20T20:03:16;49.05;;;34.45;;
49548;SDS011;35450;44.518;7.466;2023-02-20T20:06:24;59.55;;;35.72;;
49548;SDS011;35450;44.518;7.466;2023-02-20T20:09:28;49.88;;;33.33;;
49548;SDS011;35450;44.518;7.466;2023-02-20T20:12:33;48.17;;;33.35;;
49548;SDS011;35450;44.518;7.466;2023-02-20T20:15:49;51.88;;;34.28;;
49548;SDS011;35450;44.518;7.466;2023-02-20T20:18:53;65.82;;;37.38;;